createdAt,value
2023-03-10T07:10:54.506Z,99.90
2023-03-10T07:15:48.059Z,99.90
2023-03-10T07:20:42.175Z,99.90
2023-03-10T07:25:37.317Z,99.90
2023-03-10T07:30:32.999Z,99.90
2023-03-10T07:35:26.668Z,99.90
2023-03-10T07:40:22.835Z,99.90
2023-03-10T07:45:16.325Z,99.90
2023-03-10T07:50:12.932Z,99.90
2023-03-10T07:55:07.296Z,99.90
2023-03-10T08:00:00.843Z,99.90
2023-03-10T08:04:54.553Z,99.90
2023-03-10T08:09:53.086Z,99.90
2023-03-10T08:14:46.549Z,99.90
2023-03-10T08:19:40.462Z,99.90
2023-03-10T08:24:34.008Z,99.90
2023-03-10T08:29:29.021Z,99.90
2023-03-10T08:34:23.447Z,99.90
2023-03-10T08:39:17.112Z,99.90
2023-03-10T08:44:15.193Z,99.90
2023-03-10T08:49:10.670Z,99.90
2023-03-10T08:54:04.907Z,99.90
2023-03-10T08:59:02.214Z,99.90
2023-03-10T09:03:55.942Z,99.90
2023-03-10T09:08:51.682Z,99.90
2023-03-10T09:13:45.219Z,99.90
2023-03-10T09:18:39.052Z,99.90
2023-03-10T09:23:32.768Z,99.90
2023-03-10T09:28:27.890Z,99.90
2023-03-10T09:33:23.116Z,99.80
2023-03-10T09:38:17.655Z,99.90
2023-03-10T09:43:16.783Z,99.90
2023-03-10T09:48:32.498Z,99.90
2023-03-10T09:53:50.447Z,99.90
2023-03-10T09:58:47.991Z,99.80
2023-03-10T10:03:53.137Z,99.50
2023-03-10T10:09:03.556Z,98.90
2023-03-10T10:14:33.031Z,98.70
2023-03-10T10:19:29.311Z,98.90
2023-03-10T10:24:23.405Z,99.00
2023-03-10T10:29:19.313Z,99.00
2023-03-10T10:34:22.020Z,99.20
2023-03-10T10:39:28.247Z,98.40
2023-03-10T10:44:22.399Z,98.00
2023-03-10T10:49:23.403Z,97.20
2023-03-10T10:54:29.300Z,96.40
2023-03-10T10:59:24.539Z,96.10
2023-03-10T11:04:18.359Z,95.80
2023-03-10T11:09:18.480Z,95.80
2023-03-10T11:14:31.101Z,96.00
2023-03-10T11:19:34.730Z,96.50
2023-03-10T11:24:35.745Z,97.30
2023-03-10T11:29:40.383Z,97.20
2023-03-10T11:34:37.728Z,97.30
2023-03-10T11:39:43.466Z,97.70
2023-03-10T11:44:43.163Z,98.10
2023-03-10T11:49:40.267Z,98.30
2023-03-10T11:54:37.452Z,98.40
2023-03-10T11:59:34.387Z,98.60
2023-03-10T12:04:33.104Z,98.60
2023-03-10T12:09:38.934Z,98.60
2023-03-10T12:14:33.390Z,98.70
2023-03-10T12:19:26.880Z,98.40
2023-03-10T12:24:44.829Z,98.80
2023-03-10T12:29:43.103Z,99.00
2023-03-10T12:34:37.073Z,99.00
2023-03-10T12:39:40.199Z,98.60
2023-03-10T12:44:55.440Z,98.80
2023-03-10T12:49:55.282Z,98.40
2023-03-10T12:55:16.721Z,97.90
2023-03-10T13:00:24.524Z,96.20
2023-03-10T13:05:23.696Z,95.20
2023-03-10T13:10:21.886Z,94.60
2023-03-10T13:15:25.314Z,93.50
2023-03-10T13:20:20.571Z,93.50
2023-03-10T13:25:15.895Z,93.40
2023-03-10T13:30:16.890Z,94.20
2023-03-10T13:35:36.002Z,94.70
2023-03-10T13:40:29.679Z,94.40
2023-03-10T13:45:28.627Z,94.40
2023-03-10T13:50:23.060Z,94.20
2023-03-10T13:55:18.934Z,94.00
2023-03-10T14:00:17.776Z,93.50
2023-03-10T14:05:39.744Z,93.70
2023-03-10T14:10:35.699Z,94.20
2023-03-10T14:15:33.461Z,94.60
2023-03-10T14:20:29.141Z,94.50
2023-03-10T14:25:24.431Z,92.80
2023-03-10T14:30:28.092Z,88.20
2023-03-10T14:35:23.168Z,85.40
2023-03-10T14:40:17.246Z,79.30
2023-03-10T14:45:24.433Z,80.60
2023-03-10T14:50:20.935Z,87.20
2023-03-10T14:55:14.884Z,93.50
2023-03-10T15:00:14.944Z,97.40
2023-03-10T15:05:09.170Z,99.90
2023-03-10T15:10:11.964Z,99.90
2023-03-10T15:15:07.202Z,99.90
2023-03-10T15:20:00.775Z,99.90
2023-03-10T15:24:55.400Z,99.90
2023-03-10T15:29:50.669Z,99.90
2023-03-10T15:34:44.590Z,96.90
2023-03-10T15:39:39.790Z,90.90
2023-03-10T15:44:37.156Z,92.50
2023-03-10T15:49:33.229Z,98.10
2023-03-10T15:54:29.034Z,99.90
2023-03-10T15:59:24.076Z,99.60
2023-03-10T16:04:22.135Z,99.90
2023-03-10T16:09:25.425Z,99.90
2023-03-10T16:14:26.725Z,99.90
2023-03-10T16:19:24.499Z,99.90
2023-03-10T16:24:23.532Z,99.90
2023-03-10T16:29:18.680Z,99.90
2023-03-10T16:34:15.593Z,99.90
2023-03-10T16:39:10.438Z,99.90
2023-03-10T16:44:16.551Z,99.90
2023-03-10T16:49:15.629Z,99.90
2023-03-10T16:54:26.028Z,99.90
2023-03-10T16:59:46.924Z,99.90
2023-03-10T17:04:57.319Z,99.90
2023-03-10T17:09:50.868Z,99.90
2023-03-10T17:20:32.221Z,99.90
2023-03-10T17:25:25.885Z,99.90
2023-03-10T17:30:23.707Z,99.90
2023-03-10T17:35:17.902Z,99.90
